Terminal Aerodrome Forecast
Issued by NWS

Home | Current Version | Previous Version | Graphics & Text | Print | Product List | Glossary On
Versions: 1 2 3 4 5 6 7 8 9 10 11 12 13 14 15 16 17 18
000
FTUS42 KMHX 270700 AAA
TAFPGV
TAF AMD
KPGV 270749Z 2708/2806 20007KT P6SM SKC
      TEMPO 2708/2712 4SM BR
     FM271700 24009KT P6SM SCT040
     FM280100 21009KT P6SM SKC
      AMD LTD TO CLD VIS AND WIND=

USA.gov is the U.S. government's official web portal to all federal, state and local government web resources and services.